createdAt,value
2023-04-17T00:01:13.866Z,102021.97
2023-04-17T00:04:03.300Z,102026.88
2023-04-17T00:06:54.453Z,102024.59
2023-04-17T00:09:43.788Z,102027.88
2023-04-17T00:12:33.118Z,102030.28
2023-04-17T00:15:22.394Z,102028.38
2023-04-17T00:18:11.789Z,102026.56
2023-04-17T00:21:01.225Z,102034.88
2023-04-17T00:23:52.147Z,102029.88
2023-04-17T00:26:41.897Z,102027.09
2023-04-17T00:29:32.797Z,102031.88
2023-04-17T00:32:23.003Z,102022.97
2023-04-17T00:35:12.571Z,102021.63
2023-04-17T00:38:02.056Z,102029.34
2023-04-17T00:40:52.807Z,102030.66
2023-04-17T00:43:42.800Z,102039.94
2023-04-17T00:46:32.684Z,101973.22
2023-04-17T00:49:22.838Z,102031.50
2023-04-17T00:52:12.322Z,102037.25
2023-04-17T00:55:01.561Z,102041.31
2023-04-17T00:57:52.729Z,102039.06
2023-04-17T01:00:41.993Z,102043.16
2023-04-17T01:03:34.332Z,102044.78
2023-04-17T01:06:23.699Z,102039.06
2023-04-17T01:09:15.188Z,102037.75
2023-04-17T01:12:22.397Z,102044.28
2023-04-17T01:15:13.583Z,102049.97
2023-04-17T01:18:03.784Z,102048.66
2023-04-17T01:20:53.060Z,102056.31
2023-04-17T01:23:46.519Z,102049.66
2023-04-17T01:26:38.415Z,102049.66
2023-04-17T01:29:27.914Z,102055.16
2023-04-17T01:32:19.002Z,102059.88
2023-04-17T01:35:09.208Z,102051.09
2023-04-17T01:37:58.403Z,102042.25
2023-04-17T01:40:47.753Z,102053.06
2023-04-17T01:43:40.884Z,102048.97
2023-04-17T01:46:30.183Z,102034.09
2023-04-17T01:49:19.772Z,102051.44
2023-04-17T01:52:09.078Z,102054.31
2023-04-17T01:54:58.487Z,102065.84
2023-04-17T01:57:48.550Z,102060.31
2023-04-17T02:00:39.314Z,102058.69
2023-04-17T02:03:28.649Z,102060.00
2023-04-17T02:06:18.019Z,102065.53
2023-04-17T02:09:07.413Z,102059.19
2023-04-17T02:12:01.866Z,102053.66
2023-04-17T02:14:51.055Z,102060.31
2023-04-17T02:17:41.770Z,102052.19
2023-04-17T02:20:33.212Z,102061.56
2023-04-17T02:23:22.561Z,102072.00
2023-04-17T02:26:11.978Z,102061.88
2023-04-17T02:29:01.499Z,102068.19
2023-04-17T02:31:50.924Z,102067.72
2023-04-17T02:34:41.721Z,102074.69
2023-04-17T02:37:31.179Z,102073.88
2023-04-17T02:40:20.837Z,102066.72
2023-04-17T02:43:13.362Z,102073.88
2023-04-17T02:46:02.625Z,102072.53
2023-04-17T02:48:52.394Z,102079.50
2023-04-17T02:51:45.027Z,102063.34
2023-04-17T02:54:34.478Z,102079.94
2023-04-17T02:57:24.514Z,102069.34
2023-04-17T03:00:15.332Z,102076.53
2023-04-17T03:03:05.078Z,102079.88
2023-04-17T03:05:54.542Z,102074.00
2023-04-17T03:08:45.359Z,102072.19
2023-04-17T03:11:34.681Z,102068.56
2023-04-17T03:14:23.988Z,102076.03
2023-04-17T03:17:15.265Z,102071.25
2023-04-17T03:20:06.163Z,102071.84
2023-04-17T03:22:55.959Z,102071.84
2023-04-17T03:25:46.691Z,102074.94
2023-04-17T03:28:37.375Z,102074.13
2023-04-17T03:31:28.093Z,102071.34
2023-04-17T03:34:18.113Z,102067.09
2023-04-17T03:37:07.468Z,102070.88
2023-04-17T03:39:57.151Z,102066.47
2023-04-17T03:42:49.674Z,102062.88
2023-04-17T03:45:39.010Z,102073.91
2023-04-17T03:48:28.297Z,102070.88
2023-04-17T03:51:18.030Z,102057.28
2023-04-17T03:54:08.434Z,102068.53
2023-04-17T03:56:57.729Z,102074.97
2023-04-17T03:59:48.893Z,102075.09
2023-04-17T04:02:38.387Z,102074.56
2023-04-17T04:05:28.141Z,102076.81
2023-04-17T04:08:18.613Z,102076.44
2023-04-17T04:11:11.831Z,102083.78
2023-04-17T04:14:02.054Z,102086.03
2023-04-17T04:16:53.017Z,102082.16
2023-04-17T04:19:43.679Z,102080.53
2023-04-17T04:22:34.938Z,102079.69
2023-04-17T04:25:25.897Z,102089.09
2023-04-17T04:28:31.686Z,102096.03
2023-04-17T04:31:22.184Z,102082.69
2023-04-17T04:34:13.534Z,102087.28
2023-04-17T04:37:03.461Z,102090.34
2023-04-17T04:40:12.613Z,102087.06
2023-04-17T04:43:04.589Z,102085.44
2023-04-17T04:46:00.490Z,102076.03
2023-04-17T04:48:53.615Z,102089.81
2023-04-17T04:51:44.516Z,102091.16
2023-04-17T04:54:33.857Z,102089.94
2023-04-17T04:57:24.643Z,102093.81
2023-04-17T05:00:18.742Z,102087.50
2023-04-17T05:03:12.020Z,102097.06
2023-04-17T05:06:02.707Z,102089.41
2023-04-17T05:09:01.304Z,102098.72
2023-04-17T05:11:52.871Z,102103.19
2023-04-17T05:14:42.548Z,102102.69
2023-04-17T05:17:32.083Z,102099.19
2023-04-17T05:20:21.920Z,102109.59
2023-04-17T05:23:16.282Z,102106.84
2023-04-17T05:26:07.448Z,102113.81
2023-04-17T05:28:56.858Z,102107.06
2023-04-17T05:31:49.701Z,102108.69
2023-04-17T05:34:53.640Z,102112.59
2023-04-17T05:37:46.822Z,102112.84
2023-04-17T05:40:36.308Z,102122.16
2023-04-17T05:43:26.896Z,102118.28
2023-04-17T05:46:16.997Z,102111.31
2023-04-17T05:49:06.482Z,102111.13
2023-04-17T05:51:55.990Z,102110.91
2023-04-17T05:54:45.569Z,102122.97
2023-04-17T05:57:34.809Z,102129.91
2023-04-17T06:00:26.682Z,102126.84
2023-04-17T06:03:21.973Z,102123.78
2023-04-17T06:06:18.187Z,102129.78
2023-04-17T06:09:09.736Z,102127.66
2023-04-17T06:12:00.388Z,102132.38
2023-04-17T06:14:49.684Z,102140.31
2023-04-17T06:17:43.814Z,102130.91
2023-04-17T06:20:33.132Z,102145.09
2023-04-17T06:23:25.026Z,102139.31
2023-04-17T06:26:14.362Z,102157.34
2023-04-17T06:29:04.983Z,102168.06
2023-04-17T06:31:55.904Z,102171.13
2023-04-17T06:37:47.616Z,102165.00
2023-04-17T06:40:37.064Z,102171.53
2023-04-17T06:43:28.711Z,102172.44
2023-04-17T06:46:18.304Z,102156.00
2023-04-17T06:49:07.764Z,102170.31
2023-04-17T06:51:58.751Z,102181.72
2023-04-17T06:54:48.103Z,102187.34
2023-04-17T06:57:38.211Z,102191.72
2023-04-17T07:00:27.672Z,102182.97
2023-04-17T07:03:17.110Z,102188.66
2023-04-17T07:06:06.977Z,102182.25
2023-04-17T07:08:57.708Z,102182.94
2023-04-17T07:11:46.843Z,102181.72
2023-04-17T07:14:36.566Z,102181.22
2023-04-17T07:17:27.352Z,102195.31
2023-04-17T07:20:16.864Z,102188.59
2023-04-17T07:23:06.110Z,102198.63
2023-04-17T07:25:56.851Z,102202.88
2023-04-17T07:28:46.206Z,102210.75
2023-04-17T07:31:35.482Z,102204.03
2023-04-17T07:34:25.321Z,102208.81
2023-04-17T07:37:15.136Z,102202.06
2023-04-17T07:40:09.059Z,102202.34
2023-04-17T07:42:59.649Z,102204.91
2023-04-17T07:45:49.183Z,102199.00
2023-04-17T07:48:38.480Z,102202.69
2023-04-17T07:51:27.918Z,102208.94
2023-04-17T07:54:17.136Z,102209.56
2023-04-17T07:57:08.442Z,102203.34
2023-04-17T07:59:59.174Z,102212.44
2023-04-17T08:02:48.808Z,102208.47
2023-04-17T08:05:38.173Z,102212.69
2023-04-17T08:08:27.598Z,102221.19
2023-04-17T08:11:17.232Z,102217.47
2023-04-17T08:14:06.530Z,102199.94
2023-04-17T08:16:58.376Z,102218.19
2023-04-17T08:19:47.665Z,102219.75
2023-04-17T08:22:41.545Z,102226.31
2023-04-17T08:25:31.225Z,102223.22
2023-04-17T08:28:20.540Z,102227.97
2023-04-17T08:31:11.017Z,102225.44
2023-04-17T08:34:12.902Z,102220.44
2023-04-17T08:37:03.921Z,102228.00
2023-04-17T08:39:53.875Z,102237.50
2023-04-17T08:42:44.453Z,102234.25
2023-04-17T08:45:36.568Z,102225.03
2023-04-17T08:48:26.307Z,102219.88
2023-04-17T08:51:17.171Z,102247.78
2023-04-17T08:54:06.921Z,102241.56
2023-04-17T08:56:57.086Z,102251.63
2023-04-17T08:59:47.291Z,102228.81
2023-04-17T09:02:55.204Z,102235.19
2023-04-17T09:05:46.739Z,102243.56
2023-04-17T09:08:37.679Z,102239.09
2023-04-17T09:11:27.544Z,102254.59
2023-04-17T09:14:33.058Z,102242.69
2023-04-17T09:17:23.059Z,102253.16
2023-04-17T09:20:13.290Z,102250.06
2023-04-17T09:23:05.878Z,102251.44
2023-04-17T09:26:12.439Z,102243.38
2023-04-17T09:29:08.813Z,102247.75
2023-04-17T09:31:58.162Z,102252.56
2023-04-17T09:34:47.421Z,102259.84
2023-04-17T09:37:51.642Z,102258.94
2023-04-17T09:40:45.304Z,102257.72
2023-04-17T09:43:44.378Z,102263.06
2023-04-17T09:46:39.345Z,102265.25
2023-04-17T09:49:40.567Z,102258.44
2023-04-17T09:52:31.096Z,102265.31
2023-04-17T09:55:22.618Z,102267.19
2023-04-17T09:58:12.438Z,102266.25
2023-04-17T10:01:03.382Z,102268.16
2023-04-17T10:03:52.895Z,102273.63
2023-04-17T10:06:42.394Z,102274.88
2023-04-17T10:09:31.999Z,102274.84
2023-04-17T10:12:22.515Z,102275.03
2023-04-17T10:15:16.030Z,102279.66
2023-04-17T10:18:24.451Z,102266.75
2023-04-17T10:21:25.503Z,102280.28
2023-04-17T10:24:27.180Z,102276.78
2023-04-17T10:27:48.638Z,102276.56
2023-04-17T10:30:55.578Z,102274.34
2023-04-17T10:33:52.004Z,102287.84
2023-04-17T10:36:50.976Z,102290.97
2023-04-17T10:40:01.790Z,102282.84
2023-04-17T10:43:12.348Z,102290.06
2023-04-17T10:46:07.412Z,102286.19
2023-04-17T10:48:58.426Z,102292.47
2023-04-17T10:51:47.594Z,102290.47
2023-04-17T10:54:37.026Z,102275.69
2023-04-17T10:58:15.360Z,102278.66
2023-04-17T11:01:12.532Z,102281.03
2023-04-17T11:04:03.276Z,102283.44
2023-04-17T11:06:54.361Z,102291.50
2023-04-17T11:09:52.365Z,102285.59
2023-04-17T11:12:41.708Z,102269.09
2023-04-17T11:15:32.565Z,102283.34
2023-04-17T11:18:23.216Z,102279.06
2023-04-17T11:21:15.059Z,102276.63
2023-04-17T11:24:04.629Z,102276.69
2023-04-17T11:26:54.135Z,102282.78
2023-04-17T11:29:43.492Z,102287.84
2023-04-17T11:32:37.790Z,102288.41
2023-04-17T11:35:32.316Z,102270.66
2023-04-17T11:38:24.476Z,102289.81
2023-04-17T11:41:13.872Z,102288.63
2023-04-17T11:44:03.506Z,102293.94
2023-04-17T11:46:53.151Z,102269.97
2023-04-17T11:49:42.468Z,102275.81
2023-04-17T11:52:31.729Z,102286.19
2023-04-17T11:55:22.414Z,102283.28
2023-04-17T11:58:13.818Z,102279.53
2023-04-17T12:01:06.624Z,102285.38
2023-04-17T12:03:57.494Z,102283.13
2023-04-17T12:06:46.909Z,102287.38
2023-04-17T12:09:37.255Z,102291.97
2023-04-17T12:12:29.234Z,102300.19
2023-04-17T12:15:18.735Z,102301.94
2023-04-17T12:18:09.474Z,102302.06
2023-04-17T12:20:58.647Z,102295.28
2023-04-17T12:23:51.379Z,102295.94
2023-04-17T12:26:46.532Z,102294.13
2023-04-17T12:32:32.066Z,102292.28
2023-04-17T12:35:21.751Z,102302.94
2023-04-17T12:38:11.041Z,102306.53
2023-04-17T12:41:00.437Z,102306.53
2023-04-17T12:43:49.646Z,102301.88
2023-04-17T12:46:40.573Z,102298.63
2023-04-17T12:49:30.015Z,102301.44
2023-04-17T12:52:19.335Z,102294.81
2023-04-17T12:55:10.104Z,102293.66
2023-04-17T12:57:59.806Z,102299.78
2023-04-17T13:00:49.084Z,102301.53
2023-04-17T13:03:39.960Z,102308.94
2023-04-17T13:06:29.446Z,102305.56
2023-04-17T13:09:20.087Z,102309.84
2023-04-17T13:12:09.529Z,102300.59
2023-04-17T13:14:59.085Z,102298.16
2023-04-17T13:17:48.587Z,102247.69
2023-04-17T13:20:39.298Z,102300.28
2023-04-17T13:23:28.546Z,102309.44
2023-04-17T13:26:17.767Z,102300.91
2023-04-17T13:29:06.906Z,102305.94
2023-04-17T13:31:56.163Z,102312.06
2023-04-17T13:34:45.467Z,102308.81
2023-04-17T13:37:36.150Z,102306.25
2023-04-17T13:40:25.384Z,102306.97
2023-04-17T13:43:14.650Z,102297.66
2023-04-17T13:46:04.241Z,102306.47
2023-04-17T13:48:53.485Z,102310.31
2023-04-17T13:51:42.800Z,102312.31
2023-04-17T13:54:33.435Z,102309.09
2023-04-17T13:57:22.601Z,102311.31
2023-04-17T14:00:13.489Z,102301.66
2023-04-17T14:03:03.385Z,102302.16
2023-04-17T14:05:52.834Z,102307.94
2023-04-17T14:08:44.264Z,102304.06
2023-04-17T14:11:35.153Z,102298.00
2023-04-17T14:14:24.337Z,102294.97
2023-04-17T14:17:14.081Z,102307.25
2023-04-17T14:20:03.813Z,102308.75
2023-04-17T14:22:54.410Z,102294.63
2023-04-17T14:25:43.810Z,102298.91
2023-04-17T14:28:35.131Z,102307.97
2023-04-17T14:31:24.446Z,102304.38
2023-04-17T14:34:14.017Z,102299.16
2023-04-17T14:37:03.369Z,102303.25
2023-04-17T14:39:52.740Z,102305.34
2023-04-17T14:42:53.526Z,102299.88
2023-04-17T14:45:44.832Z,102303.75
2023-04-17T14:48:41.075Z,102290.72
2023-04-17T14:51:41.397Z,102296.28
2023-04-17T14:54:30.626Z,102274.88
2023-04-17T14:57:19.822Z,102296.78
2023-04-17T15:00:11.120Z,102296.06
2023-04-17T15:03:02.105Z,102300.13
2023-04-17T15:05:52.445Z,102297.56
2023-04-17T15:08:41.786Z,102303.38
2023-04-17T15:11:31.014Z,102290.19
2023-04-17T15:14:21.796Z,102303.44
2023-04-17T15:17:11.009Z,102304.13
2023-04-17T15:20:01.600Z,102312.06
2023-04-17T15:22:52.677Z,102318.97
2023-04-17T15:25:42.345Z,102320.59
2023-04-17T15:28:33.154Z,102315.38
2023-04-17T15:31:22.681Z,102327.69
2023-04-17T15:34:13.634Z,102333.53
2023-04-17T15:37:07.203Z,102330.81
2023-04-17T15:39:56.948Z,102327.19
2023-04-17T15:42:46.207Z,102326.47
2023-04-17T15:45:35.729Z,102330.78
2023-04-17T15:48:25.121Z,102337.03
2023-04-17T15:51:14.595Z,102338.53
2023-04-17T15:54:06.081Z,102340.19
2023-04-17T15:56:56.201Z,102345.72
2023-04-17T15:59:45.494Z,102341.97
2023-04-17T16:02:35.006Z,102340.28
2023-04-17T16:05:24.283Z,102349.00
2023-04-17T16:08:13.533Z,102349.41
2023-04-17T16:11:04.316Z,102347.25
2023-04-17T16:13:53.626Z,102362.75
2023-04-17T16:16:43.046Z,102357.78
2023-04-17T16:19:32.690Z,102355.72
2023-04-17T16:22:21.854Z,102355.03
2023-04-17T16:25:12.755Z,102353.69
2023-04-17T16:28:03.389Z,102359.06
2023-04-17T16:30:52.713Z,102353.19
2023-04-17T16:33:42.148Z,102355.31
2023-04-17T16:36:33.196Z,102360.38
2023-04-17T16:39:22.932Z,102363.97
2023-04-17T16:42:12.286Z,102352.38
2023-04-17T16:45:02.986Z,102360.69
2023-04-17T16:47:52.241Z,102359.88
2023-04-17T16:50:41.507Z,102354.16
2023-04-17T16:53:30.773Z,102356.13
2023-04-17T16:56:20.376Z,102356.78
2023-04-17T16:59:09.726Z,102356.44
2023-04-17T17:02:02.509Z,102353.34
2023-04-17T17:04:51.703Z,102360.53
2023-04-17T17:07:40.958Z,102365.44
2023-04-17T17:10:30.623Z,102363.00
2023-04-17T17:13:19.814Z,102363.31
2023-04-17T17:16:09.053Z,102359.06
2023-04-17T17:19:00.279Z,102359.56
2023-04-17T17:21:50.023Z,102363.63
2023-04-17T17:24:39.921Z,102364.44
2023-04-17T17:27:29.246Z,102365.91
2023-04-17T17:30:18.661Z,102368.19
2023-04-17T17:33:08.001Z,102356.28
2023-04-17T17:35:58.808Z,102365.41
2023-04-17T17:38:50.953Z,102365.41
2023-04-17T17:41:40.439Z,102375.97
2023-04-17T17:44:29.710Z,102367.84
2023-04-17T17:47:18.935Z,102369.44
2023-04-17T17:50:09.885Z,102364.34
2023-04-17T17:53:00.601Z,102364.88
2023-04-17T17:55:52.772Z,102363.06
2023-04-17T17:58:42.174Z,102360.34
2023-04-17T18:01:31.610Z,102364.41
2023-04-17T18:04:21.140Z,102372.41
2023-04-17T18:07:10.712Z,102372.25
2023-04-17T18:10:01.461Z,102377.66
2023-04-17T18:12:50.793Z,102374.88
2023-04-17T18:15:40.102Z,102375.56
2023-04-17T18:18:29.388Z,102378.78
2023-04-17T18:21:18.666Z,102386.13
2023-04-17T18:24:09.135Z,102389.41
2023-04-17T18:27:00.154Z,102387.09
2023-04-17T18:29:49.552Z,102393.59
2023-04-17T18:32:38.876Z,102392.31
2023-04-17T18:35:28.145Z,102398.69
2023-04-17T18:38:17.586Z,102392.31
2023-04-17T18:41:06.976Z,102399.00
2023-04-17T18:43:57.666Z,102399.81
2023-04-17T18:46:47.876Z,102384.50
2023-04-17T18:49:37.123Z,102402.25
2023-04-17T18:52:26.340Z,102404.16
2023-04-17T18:55:17.589Z,102403.72
2023-04-17T18:58:07.389Z,102410.53
2023-04-17T19:00:58.586Z,102418.88
2023-04-17T19:03:47.837Z,102411.03
2023-04-17T19:06:37.336Z,102418.00
2023-04-17T19:09:26.832Z,102415.69
2023-04-17T19:12:16.814Z,102411.97
2023-04-17T19:15:07.971Z,102407.66
2023-04-17T19:17:58.631Z,102422.16
2023-04-17T19:20:48.053Z,102423.19
2023-04-17T19:23:38.622Z,102418.44
2023-04-17T19:26:27.967Z,102432.13
2023-04-17T19:29:17.200Z,102446.09
2023-04-17T19:32:07.055Z,102441.56
2023-04-17T19:34:57.683Z,102440.50
2023-04-17T19:37:46.931Z,102448.41
2023-04-17T19:40:36.136Z,102453.59
2023-04-17T19:43:25.439Z,102455.59
2023-04-17T19:46:15.299Z,102454.63
2023-04-17T19:49:04.880Z,102459.97
2023-04-17T19:51:55.471Z,102472.72
2023-04-17T19:54:46.292Z,102473.06
2023-04-17T19:57:36.606Z,102459.00
2023-04-17T20:00:26.084Z,102472.75
2023-04-17T20:03:15.514Z,102474.00
2023-04-17T20:06:05.065Z,102472.66
2023-04-17T20:08:58.505Z,102475.53
2023-04-17T20:11:47.763Z,102473.13
2023-04-17T20:14:36.998Z,102469.38
2023-04-17T20:17:26.609Z,102475.16
2023-04-17T20:20:16.011Z,102481.50
2023-04-17T20:23:05.311Z,102488.88
2023-04-17T20:25:56.057Z,102494.38
2023-04-17T20:28:45.348Z,102497.69
2023-04-17T20:31:36.451Z,102495.53
2023-04-17T20:34:26.815Z,102498.38
2023-04-17T20:37:16.053Z,102498.59
2023-04-17T20:40:10.723Z,102497.06
2023-04-17T20:43:01.308Z,102503.66
2023-04-17T20:45:51.490Z,102501.50
2023-04-17T20:48:41.037Z,102510.81
2023-04-17T20:51:30.449Z,102522.09
2023-04-17T20:54:19.659Z,102513.03
2023-04-17T20:57:08.912Z,102519.59
2023-04-17T20:59:59.558Z,102526.75
2023-04-17T21:02:48.864Z,102527.84
2023-04-17T21:05:38.743Z,102530.91
2023-04-17T21:08:28.161Z,102517.19
2023-04-17T21:11:17.322Z,102535.28
2023-04-17T21:14:06.541Z,102529.00
2023-04-17T21:16:58.622Z,102526.25
2023-04-17T21:19:47.861Z,102533.09
2023-04-17T21:22:37.751Z,102529.06
2023-04-17T21:25:27.773Z,102524.16
2023-04-17T21:28:16.949Z,102502.81
2023-04-17T21:31:10.375Z,102539.53
2023-04-17T21:34:01.534Z,102538.41
2023-04-17T21:36:50.988Z,102532.44
2023-04-17T21:39:40.274Z,102547.50
2023-04-17T21:42:29.672Z,102548.63
2023-04-17T21:45:19.075Z,102547.22
2023-04-17T21:48:08.492Z,102543.66
2023-04-17T21:51:04.289Z,102544.19
2023-04-17T21:53:53.502Z,102542.78
2023-04-17T21:56:42.747Z,102549.66
2023-04-17T21:59:32.279Z,102557.03
2023-04-17T22:02:21.668Z,102558.09
2023-04-17T22:05:11.734Z,102564.69
2023-04-17T22:08:02.507Z,102559.19
2023-04-17T22:10:53.033Z,102569.56
2023-04-17T22:13:42.975Z,102561.63
2023-04-17T22:16:32.468Z,102565.19
2023-04-17T22:19:22.365Z,102564.31
2023-04-17T22:22:11.754Z,102568.91
2023-04-17T22:25:02.630Z,102583.38
2023-04-17T22:27:52.697Z,102572.69
2023-04-17T22:30:42.239Z,102584.50
2023-04-17T22:33:31.738Z,102578.16
2023-04-17T22:36:21.122Z,102580.91
2023-04-17T22:39:10.483Z,102583.66
2023-04-17T22:42:01.255Z,102586.91
2023-04-17T22:44:50.714Z,102587.75
2023-04-17T22:47:40.210Z,102586.41
2023-04-17T22:50:30.644Z,102590.50
2023-04-17T22:53:20.198Z,102587.53
2023-04-17T22:56:13.969Z,102588.13
2023-04-17T22:59:05.141Z,102593.63
2023-04-17T23:01:54.874Z,102595.00
2023-04-17T23:04:44.611Z,102600.47
2023-04-17T23:07:34.488Z,102588.44
2023-04-17T23:10:23.829Z,102587.56
2023-04-17T23:13:13.229Z,102585.91
2023-04-17T23:16:04.489Z,102584.00
2023-04-17T23:18:54.117Z,102576.88
2023-04-17T23:21:43.579Z,102582.13
2023-04-17T23:24:35.746Z,102587.84
2023-04-17T23:27:25.996Z,102586.97
2023-04-17T23:30:16.364Z,102584.19
2023-04-17T23:33:07.388Z,102582.56
2023-04-17T23:35:56.680Z,102590.19
2023-04-17T23:38:46.118Z,102588.53
2023-04-17T23:41:35.713Z,102581.44
2023-04-17T23:44:25.377Z,102591.53
2023-04-17T23:47:15.271Z,102581.63
2023-04-17T23:50:07.489Z,102583.56
2023-04-17T23:52:57.017Z,102587.66
2023-04-17T23:55:46.660Z,102600.56
2023-04-17T23:58:35.914Z,102595.06
